sensor_id;sensor_type;location;lat;lon;timestamp;temperature;humidity
42095;DHT22;27753;55.724;37.612;2023-06-26T00:02:14;18.80;67.40
42095;DHT22;27753;55.724;37.612;2023-06-26T00:04:39;18.70;67.70
42095;DHT22;27753;55.724;37.612;2023-06-26T00:07:05;18.70;68.10
42095;DHT22;27753;55.724;37.612;2023-06-26T00:09:32;18.70;68.30
42095;DHT22;27753;55.724;37.612;2023-06-26T00:11:57;18.70;68.20
42095;DHT22;27753;55.724;37.612;2023-06-26T00:14:24;18.70;68.30
42095;DHT22;27753;55.724;37.612;2023-06-26T00:16:51;18.70;68.50
42095;DHT22;27753;55.724;37.612;2023-06-26T00:19:17;18.70;68.70
42095;DHT22;27753;55.724;37.612;2023-06-26T00:21:43;18.80;69.10
42095;DHT22;27753;55.724;37.612;2023-06-26T00:24:13;18.80;69.10
42095;DHT22;27753;55.724;37.612;2023-06-26T00:26:39;18.90;69.30
42095;DHT22;27753;55.724;37.612;2023-06-26T00:29:05;18.80;69.00
42095;DHT22;27753;55.724;37.612;2023-06-26T00:31:30;18.90;69.20
42095;DHT22;27753;55.724;37.612;2023-06-26T00:33:56;18.80;69.40
42095;DHT22;27753;55.724;37.612;2023-06-26T00:36:21;18.80;69.80
42095;DHT22;27753;55.724;37.612;2023-06-26T00:38:51;18.80;70.00
42095;DHT22;27753;55.724;37.612;2023-06-26T00:41:17;18.80;70.40
42095;DHT22;27753;55.724;37.612;2023-06-26T00:43:43;18.80;70.20
42095;DHT22;27753;55.724;37.612;2023-06-26T00:46:10;18.90;70.00
42095;DHT22;27753;55.724;37.612;2023-06-26T00:48:36;18.80;69.80
42095;DHT22;27753;55.724;37.612;2023-06-26T00:51:02;18.80;69.70
42095;DHT22;27753;55.724;37.612;2023-06-26T00:53:28;18.80;69.80
42095;DHT22;27753;55.724;37.612;2023-06-26T00:55:53;18.80;69.50
42095;DHT22;27753;55.724;37.612;2023-06-26T00:58:21;18.70;69.70
42095;DHT22;27753;55.724;37.612;2023-06-26T01:00:48;18.70;69.60
42095;DHT22;27753;55.724;37.612;2023-06-26T01:03:14;18.70;69.60
42095;DHT22;27753;55.724;37.612;2023-06-26T01:05:40;18.70;69.70
42095;DHT22;27753;55.724;37.612;2023-06-26T01:08:06;18.60;69.80
42095;DHT22;27753;55.724;37.612;2023-06-26T01:10:33;18.60;70.00
42095;DHT22;27753;55.724;37.612;2023-06-26T01:12:58;18.60;70.10
42095;DHT22;27753;55.724;37.612;2023-06-26T01:15:24;18.60;70.30
42095;DHT22;27753;55.724;37.612;2023-06-26T01:17:50;18.50;70.20
42095;DHT22;27753;55.724;37.612;2023-06-26T01:20:16;18.50;70.30
42095;DHT22;27753;55.724;37.612;2023-06-26T01:25:18;18.50;70.70
42095;DHT22;27753;55.724;37.612;2023-06-26T01:27:48;18.40;70.60
42095;DHT22;27753;55.724;37.612;2023-06-26T01:30:14;18.40;70.80
42095;DHT22;27753;55.724;37.612;2023-06-26T01:32:40;18.40;70.60
42095;DHT22;27753;55.724;37.612;2023-06-26T01:35:07;18.50;70.80
42095;DHT22;27753;55.724;37.612;2023-06-26T01:37:33;18.40;71.00
42095;DHT22;27753;55.724;37.612;2023-06-26T01:39:58;18.40;70.90
42095;DHT22;27753;55.724;37.612;2023-06-26T01:42:24;18.40;71.00
42095;DHT22;27753;55.724;37.612;2023-06-26T01:44:50;18.30;71.00
42095;DHT22;27753;55.724;37.612;2023-06-26T01:47:19;18.30;71.00
42095;DHT22;27753;55.724;37.612;2023-06-26T01:49:48;18.30;71.10
42095;DHT22;27753;55.724;37.612;2023-06-26T01:52:36;18.30;71.30
42095;DHT22;27753;55.724;37.612;2023-06-26T01:55:11;18.20;71.50
42095;DHT22;27753;55.724;37.612;2023-06-26T01:57:38;18.20;71.80
42095;DHT22;27753;55.724;37.612;2023-06-26T02:00:04;18.20;71.90
42095;DHT22;27753;55.724;37.612;2023-06-26T02:02:31;18.20;71.80
42095;DHT22;27753;55.724;37.612;2023-06-26T02:04:57;18.20;72.20
42095;DHT22;27753;55.724;37.612;2023-06-26T02:07:23;18.30;72.60
42095;DHT22;27753;55.724;37.612;2023-06-26T02:09:48;18.30;72.80
42095;DHT22;27753;55.724;37.612;2023-06-26T02:12:14;18.30;73.00
42095;DHT22;27753;55.724;37.612;2023-06-26T02:14:40;18.30;73.30
42095;DHT22;27753;55.724;37.612;2023-06-26T02:17:05;18.30;73.60
42095;DHT22;27753;55.724;37.612;2023-06-26T02:19:32;18.30;73.90
42095;DHT22;27753;55.724;37.612;2023-06-26T02:21:57;18.30;74.30
42095;DHT22;27753;55.724;37.612;2023-06-26T02:24:23;18.30;74.00
42095;DHT22;27753;55.724;37.612;2023-06-26T02:26:49;18.30;74.10
42095;DHT22;27753;55.724;37.612;2023-06-26T02:29:14;18.30;74.40
42095;DHT22;27753;55.724;37.612;2023-06-26T02:31:40;18.40;74.50
42095;DHT22;27753;55.724;37.612;2023-06-26T02:34:06;18.40;74.50
42095;DHT22;27753;55.724;37.612;2023-06-26T02:36:32;18.40;74.30
42095;DHT22;27753;55.724;37.612;2023-06-26T02:38:57;18.40;74.10
42095;DHT22;27753;55.724;37.612;2023-06-26T02:41:23;18.50;74.50
42095;DHT22;27753;55.724;37.612;2023-06-26T02:43:48;18.50;74.40
42095;DHT22;27753;55.724;37.612;2023-06-26T02:46:14;18.60;74.50
42095;DHT22;27753;55.724;37.612;2023-06-26T02:48:40;18.50;74.10
42095;DHT22;27753;55.724;37.612;2023-06-26T02:51:06;18.60;73.80
42095;DHT22;27753;55.724;37.612;2023-06-26T02:53:32;18.60;73.40
42095;DHT22;27753;55.724;37.612;2023-06-26T02:55:58;18.60;73.10
42095;DHT22;27753;55.724;37.612;2023-06-26T02:58:23;18.70;73.30
42095;DHT22;27753;55.724;37.612;2023-06-26T03:00:49;18.60;73.50
42095;DHT22;27753;55.724;37.612;2023-06-26T03:03:15;18.70;73.20
42095;DHT22;27753;55.724;37.612;2023-06-26T03:05:41;18.70;73.00
42095;DHT22;27753;55.724;37.612;2023-06-26T03:08:06;18.80;72.90
42095;DHT22;27753;55.724;37.612;2023-06-26T03:10:32;18.80;72.70
42095;DHT22;27753;55.724;37.612;2023-06-26T03:12:58;18.90;72.70
42095;DHT22;27753;55.724;37.612;2023-06-26T03:15:23;18.90;72.60
42095;DHT22;27753;55.724;37.612;2023-06-26T03:17:49;18.90;72.60
42095;DHT22;27753;55.724;37.612;2023-06-26T03:20:14;18.90;72.30
42095;DHT22;27753;55.724;37.612;2023-06-26T03:22:40;18.90;72.30
42095;DHT22;27753;55.724;37.612;2023-06-26T03:25:06;18.90;72.30
42095;DHT22;27753;55.724;37.612;2023-06-26T03:27:32;18.90;72.60
42095;DHT22;27753;55.724;37.612;2023-06-26T03:29:58;18.90;72.80
42095;DHT22;27753;55.724;37.612;2023-06-26T03:32:23;18.90;72.90
42095;DHT22;27753;55.724;37.612;2023-06-26T03:34:49;19.00;72.80
42095;DHT22;27753;55.724;37.612;2023-06-26T03:37:15;18.90;72.90
42095;DHT22;27753;55.724;37.612;2023-06-26T03:39:40;19.00;72.80
42095;DHT22;27753;55.724;37.612;2023-06-26T03:42:06;19.00;72.80
42095;DHT22;27753;55.724;37.612;2023-06-26T03:44:32;19.10;72.90
42095;DHT22;27753;55.724;37.612;2023-06-26T03:46:57;19.20;73.10
42095;DHT22;27753;55.724;37.612;2023-06-26T03:49:23;19.20;73.10
42095;DHT22;27753;55.724;37.612;2023-06-26T03:51:49;19.30;72.90
42095;DHT22;27753;55.724;37.612;2023-06-26T03:54:14;19.40;72.40
42095;DHT22;27753;55.724;37.612;2023-06-26T03:56:40;19.50;71.90
42095;DHT22;27753;55.724;37.612;2023-06-26T03:59:06;19.60;71.40
42095;DHT22;27753;55.724;37.612;2023-06-26T04:01:31;19.80;71.10
42095;DHT22;27753;55.724;37.612;2023-06-26T04:03:57;19.90;70.60
42095;DHT22;27753;55.724;37.612;2023-06-26T04:06:23;20.10;71.10
42095;DHT22;27753;55.724;37.612;2023-06-26T04:08:49;20.40;70.00
42095;DHT22;27753;55.724;37.612;2023-06-26T04:11:14;20.70;69.60
42095;DHT22;27753;55.724;37.612;2023-06-26T04:13:40;21.00;69.00
42095;DHT22;27753;55.724;37.612;2023-06-26T04:16:05;21.20;68.20
42095;DHT22;27753;55.724;37.612;2023-06-26T04:18:32;21.40;67.70
42095;DHT22;27753;55.724;37.612;2023-06-26T04:21:07;21.60;66.50
42095;DHT22;27753;55.724;37.612;2023-06-26T04:23:34;21.60;64.30
42095;DHT22;27753;55.724;37.612;2023-06-26T04:26:00;21.50;64.20
42095;DHT22;27753;55.724;37.612;2023-06-26T04:28:25;21.50;64.50
42095;DHT22;27753;55.724;37.612;2023-06-26T04:30:51;21.60;64.20
42095;DHT22;27753;55.724;37.612;2023-06-26T04:33:17;21.60;64.00
42095;DHT22;27753;55.724;37.612;2023-06-26T04:35:42;21.80;64.00
42095;DHT22;27753;55.724;37.612;2023-06-26T04:38:14;21.90;63.40
42095;DHT22;27753;55.724;37.612;2023-06-26T04:40:40;21.90;63.10
42095;DHT22;27753;55.724;37.612;2023-06-26T04:43:06;22.00;63.10
42095;DHT22;27753;55.724;37.612;2023-06-26T04:45:32;22.10;63.10
42095;DHT22;27753;55.724;37.612;2023-06-26T04:47:57;22.20;62.90
42095;DHT22;27753;55.724;37.612;2023-06-26T04:50:25;22.30;61.30
42095;DHT22;27753;55.724;37.612;2023-06-26T04:52:50;22.40;61.10
42095;DHT22;27753;55.724;37.612;2023-06-26T04:55:16;22.40;60.90
42095;DHT22;27753;55.724;37.612;2023-06-26T04:57:42;22.50;61.00
42095;DHT22;27753;55.724;37.612;2023-06-26T05:00:07;22.60;61.00
42095;DHT22;27753;55.724;37.612;2023-06-26T05:02:36;22.60;60.90
42095;DHT22;27753;55.724;37.612;2023-06-26T05:05:01;22.70;60.80
42095;DHT22;27753;55.724;37.612;2023-06-26T05:07:27;22.70;59.10
42095;DHT22;27753;55.724;37.612;2023-06-26T05:09:53;22.70;59.50
42095;DHT22;27753;55.724;37.612;2023-06-26T05:12:18;22.70;59.60
42095;DHT22;27753;55.724;37.612;2023-06-26T05:14:44;22.90;60.00
42095;DHT22;27753;55.724;37.612;2023-06-26T05:17:10;23.40;59.80
42095;DHT22;27753;55.724;37.612;2023-06-26T05:19:36;24.10;59.20
42095;DHT22;27753;55.724;37.612;2023-06-26T05:22:02;25.10;57.40
42095;DHT22;27753;55.724;37.612;2023-06-26T05:24:35;26.00;54.00
42095;DHT22;27753;55.724;37.612;2023-06-26T05:27:01;26.90;53.70
42095;DHT22;27753;55.724;37.612;2023-06-26T05:29:28;27.70;51.50
42095;DHT22;27753;55.724;37.612;2023-06-26T05:31:53;28.50;50.50
42095;DHT22;27753;55.724;37.612;2023-06-26T05:36:47;29.40;49.80
42095;DHT22;27753;55.724;37.612;2023-06-26T05:39:14;31.30;46.90
42095;DHT22;27753;55.724;37.612;2023-06-26T05:41:40;31.70;45.10
42095;DHT22;27753;55.724;37.612;2023-06-26T05:44:05;32.20;45.90
42095;DHT22;27753;55.724;37.612;2023-06-26T05:46:31;32.60;44.50
42095;DHT22;27753;55.724;37.612;2023-06-26T05:48:57;33.00;44.80
42095;DHT22;27753;55.724;37.612;2023-06-26T05:51:23;33.20;42.00
42095;DHT22;27753;55.724;37.612;2023-06-26T05:53:49;33.10;41.90
42095;DHT22;27753;55.724;37.612;2023-06-26T05:56:15;32.80;40.70
42095;DHT22;27753;55.724;37.612;2023-06-26T05:58:40;32.40;39.70
42095;DHT22;27753;55.724;37.612;2023-06-26T06:01:08;31.90;40.20
42095;DHT22;27753;55.724;37.612;2023-06-26T06:03:33;31.90;40.70
42095;DHT22;27753;55.724;37.612;2023-06-26T06:05:59;32.70;41.00
42095;DHT22;27753;55.724;37.612;2023-06-26T06:08:25;33.70;40.40
42095;DHT22;27753;55.724;37.612;2023-06-26T06:10:50;34.80;40.40
42095;DHT22;27753;55.724;37.612;2023-06-26T06:13:16;35.50;38.00
42095;DHT22;27753;55.724;37.612;2023-06-26T06:15:42;35.40;36.80
42095;DHT22;27753;55.724;37.612;2023-06-26T06:18:07;35.80;37.80
42095;DHT22;27753;55.724;37.612;2023-06-26T06:20:33;36.80;37.30
42095;DHT22;27753;55.724;37.612;2023-06-26T06:22:59;37.60;36.30
42095;DHT22;27753;55.724;37.612;2023-06-26T06:25:24;37.90;35.10
42095;DHT22;27753;55.724;37.612;2023-06-26T06:27:50;38.50;35.60
42095;DHT22;27753;55.724;37.612;2023-06-26T06:30:15;39.80;33.80
42095;DHT22;27753;55.724;37.612;2023-06-26T06:32:41;39.90;33.90
42095;DHT22;27753;55.724;37.612;2023-06-26T06:42:29;40.30;34.40
42095;DHT22;27753;55.724;37.612;2023-06-26T06:44:55;41.80;33.40
42095;DHT22;27753;55.724;37.612;2023-06-26T06:47:21;42.30;32.40
42095;DHT22;27753;55.724;37.612;2023-06-26T06:49:46;42.70;32.10
42095;DHT22;27753;55.724;37.612;2023-06-26T06:52:12;43.30;31.60
42095;DHT22;27753;55.724;37.612;2023-06-26T06:54:50;42.70;29.40
42095;DHT22;27753;55.724;37.612;2023-06-26T06:57:16;41.40;29.20
42095;DHT22;27753;55.724;37.612;2023-06-26T06:59:42;40.30;29.50
42095;DHT22;27753;55.724;37.612;2023-06-26T07:02:07;39.50;30.50
42095;DHT22;27753;55.724;37.612;2023-06-26T07:04:33;40.10;30.70
42095;DHT22;27753;55.724;37.612;2023-06-26T07:06:59;40.20;30.10
42095;DHT22;27753;55.724;37.612;2023-06-26T07:09:24;40.10;29.90
42095;DHT22;27753;55.724;37.612;2023-06-26T07:11:50;39.90;30.00
42095;DHT22;27753;55.724;37.612;2023-06-26T07:14:15;41.10;30.00
42095;DHT22;27753;55.724;37.612;2023-06-26T07:16:41;42.20;29.50
42095;DHT22;27753;55.724;37.612;2023-06-26T07:19:07;42.30;29.00
42095;DHT22;27753;55.724;37.612;2023-06-26T07:21:32;42.80;29.30
42095;DHT22;27753;55.724;37.612;2023-06-26T07:23:58;43.00;28.90
42095;DHT22;27753;55.724;37.612;2023-06-26T07:26:24;42.60;28.40
42095;DHT22;27753;55.724;37.612;2023-06-26T07:28:49;42.80;28.70
42095;DHT22;27753;55.724;37.612;2023-06-26T07:31:15;43.20;28.90
42095;DHT22;27753;55.724;37.612;2023-06-26T07:33:42;43.40;28.50
42095;DHT22;27753;55.724;37.612;2023-06-26T07:36:07;43.20;28.60
42095;DHT22;27753;55.724;37.612;2023-06-26T07:38:33;43.70;28.40
42095;DHT22;27753;55.724;37.612;2023-06-26T07:45:51;43.60;28.10
42095;DHT22;27753;55.724;37.612;2023-06-26T07:48:18;42.20;28.50
42095;DHT22;27753;55.724;37.612;2023-06-26T07:50:44;42.60;28.80
42095;DHT22;27753;55.724;37.612;2023-06-26T07:53:09;42.90;28.80
42095;DHT22;27753;55.724;37.612;2023-06-26T07:55:35;43.30;28.10
42095;DHT22;27753;55.724;37.612;2023-06-26T07:58:01;43.10;27.80
42095;DHT22;27753;55.724;37.612;2023-06-26T08:00:26;42.40;28.00
42095;DHT22;27753;55.724;37.612;2023-06-26T08:02:52;42.50;28.60
42095;DHT22;27753;55.724;37.612;2023-06-26T08:05:18;43.10;28.30
42095;DHT22;27753;55.724;37.612;2023-06-26T08:17:31;43.60;28.30
42095;DHT22;27753;55.724;37.612;2023-06-26T08:19:57;40.00;29.00
42095;DHT22;27753;55.724;37.612;2023-06-26T08:22:23;38.20;29.10
42095;DHT22;27753;55.724;37.612;2023-06-26T08:24:49;37.10;29.80
42095;DHT22;27753;55.724;37.612;2023-06-26T08:27:14;37.50;30.70
42095;DHT22;27753;55.724;37.612;2023-06-26T08:29:40;38.30;30.10
42095;DHT22;27753;55.724;37.612;2023-06-26T08:32:06;36.10;29.70
42095;DHT22;27753;55.724;37.612;2023-06-26T08:34:31;35.10;30.70
42095;DHT22;27753;55.724;37.612;2023-06-26T08:36:57;34.50;31.60
42095;DHT22;27753;55.724;37.612;2023-06-26T08:39:23;34.10;32.10
42095;DHT22;27753;55.724;37.612;2023-06-26T08:41:48;33.20;33.10
42095;DHT22;27753;55.724;37.612;2023-06-26T08:46:40;32.40;33.80
42095;DHT22;27753;55.724;37.612;2023-06-26T08:49:20;32.60;34.80
42095;DHT22;27753;55.724;37.612;2023-06-26T08:51:49;34.20;34.60
42095;DHT22;27753;55.724;37.612;2023-06-26T08:54:17;39.20;31.60
42095;DHT22;27753;55.724;37.612;2023-06-26T08:56:46;39.60;31.80
42095;DHT22;27753;55.724;37.612;2023-06-26T08:59:13;39.50;29.40
42095;DHT22;27753;55.724;37.612;2023-06-26T09:01:40;36.70;29.70
42095;DHT22;27753;55.724;37.612;2023-06-26T09:04:06;35.20;31.00
42095;DHT22;27753;55.724;37.612;2023-06-26T09:06:32;34.10;31.60
42095;DHT22;27753;55.724;37.612;2023-06-26T09:08:58;32.60;32.20
42095;DHT22;27753;55.724;37.612;2023-06-26T09:11:24;31.60;33.20
42095;DHT22;27753;55.724;37.612;2023-06-26T09:13:50;30.90;34.10
42095;DHT22;27753;55.724;37.612;2023-06-26T09:16:15;30.30;34.90
42095;DHT22;27753;55.724;37.612;2023-06-26T09:18:41;29.70;35.80
42095;DHT22;27753;55.724;37.612;2023-06-26T09:21:08;29.30;36.30
42095;DHT22;27753;55.724;37.612;2023-06-26T09:23:34;29.00;36.50
42095;DHT22;27753;55.724;37.612;2023-06-26T09:26:04;28.80;37.30
42095;DHT22;27753;55.724;37.612;2023-06-26T09:28:30;28.60;37.80
42095;DHT22;27753;55.724;37.612;2023-06-26T09:31:00;28.40;38.60
42095;DHT22;27753;55.724;37.612;2023-06-26T09:33:25;28.30;38.90
42095;DHT22;27753;55.724;37.612;2023-06-26T09:35:51;28.30;38.70
42095;DHT22;27753;55.724;37.612;2023-06-26T09:38:17;28.30;38.60
42095;DHT22;27753;55.724;37.612;2023-06-26T09:40:43;28.30;38.60
42095;DHT22;27753;55.724;37.612;2023-06-26T09:43:12;28.40;38.90
42095;DHT22;27753;55.724;37.612;2023-06-26T09:45:39;28.90;39.30
42095;DHT22;27753;55.724;37.612;2023-06-26T09:48:05;29.70;38.60
42095;DHT22;27753;55.724;37.612;2023-06-26T09:50:32;29.80;37.70
42095;DHT22;27753;55.724;37.612;2023-06-26T09:53:08;29.40;37.30
42095;DHT22;27753;55.724;37.612;2023-06-26T09:55:39;28.90;37.60
42095;DHT22;27753;55.724;37.612;2023-06-26T09:58:06;28.40;38.00
42095;DHT22;27753;55.724;37.612;2023-06-26T10:00:31;27.60;38.90
42095;DHT22;27753;55.724;37.612;2023-06-26T10:02:58;26.80;40.20
42095;DHT22;27753;55.724;37.612;2023-06-26T10:05:24;26.20;40.90
42095;DHT22;27753;55.724;37.612;2023-06-26T10:07:49;26.20;40.80
42095;DHT22;27753;55.724;37.612;2023-06-26T10:10:16;26.30;40.60
42095;DHT22;27753;55.724;37.612;2023-06-26T10:12:41;26.10;41.60
42095;DHT22;27753;55.724;37.612;2023-06-26T10:15:08;26.30;42.10
42095;DHT22;27753;55.724;37.612;2023-06-26T10:17:37;26.50;42.30
42095;DHT22;27753;55.724;37.612;2023-06-26T10:20:04;26.60;42.60
42095;DHT22;27753;55.724;37.612;2023-06-26T10:22:33;26.70;42.40
42095;DHT22;27753;55.724;37.612;2023-06-26T10:25:01;26.80;41.60
42095;DHT22;27753;55.724;37.612;2023-06-26T10:27:29;26.90;41.80
42095;DHT22;27753;55.724;37.612;2023-06-26T10:30:00;27.00;41.90
42095;DHT22;27753;55.724;37.612;2023-06-26T10:32:27;27.10;42.10
42095;DHT22;27753;55.724;37.612;2023-06-26T10:34:53;27.20;42.20
42095;DHT22;27753;55.724;37.612;2023-06-26T10:37:20;27.40;42.10
42095;DHT22;27753;55.724;37.612;2023-06-26T10:39:47;27.60;41.70
42095;DHT22;27753;55.724;37.612;2023-06-26T10:42:15;27.60;42.00
42095;DHT22;27753;55.724;37.612;2023-06-26T10:44:41;27.50;41.60
42095;DHT22;27753;55.724;37.612;2023-06-26T10:47:10;27.10;41.80
42095;DHT22;27753;55.724;37.612;2023-06-26T10:49:36;27.00;42.40
42095;DHT22;27753;55.724;37.612;2023-06-26T10:52:03;27.10;42.50
42095;DHT22;27753;55.724;37.612;2023-06-26T10:54:29;27.20;42.50
42095;DHT22;27753;55.724;37.612;2023-06-26T10:56:55;27.00;42.60
42095;DHT22;27753;55.724;37.612;2023-06-26T10:59:26;27.20;42.70
42095;DHT22;27753;55.724;37.612;2023-06-26T11:07:24;27.60;42.40
42095;DHT22;27753;55.724;37.612;2023-06-26T11:09:58;27.40;42.10
42095;DHT22;27753;55.724;37.612;2023-06-26T11:12:38;27.30;42.10
42095;DHT22;27753;55.724;37.612;2023-06-26T11:17:34;27.10;42.10
42095;DHT22;27753;55.724;37.612;2023-06-26T11:19:59;26.90;42.40
42095;DHT22;27753;55.724;37.612;2023-06-26T11:22:26;26.90;42.60
42095;DHT22;27753;55.724;37.612;2023-06-26T11:24:53;26.90;42.60
42095;DHT22;27753;55.724;37.612;2023-06-26T11:27:18;27.00;42.60
42095;DHT22;27753;55.724;37.612;2023-06-26T11:29:48;27.00;42.50
42095;DHT22;27753;55.724;37.612;2023-06-26T11:32:16;27.00;42.50
42095;DHT22;27753;55.724;37.612;2023-06-26T11:34:42;27.10;42.40
42095;DHT22;27753;55.724;37.612;2023-06-26T11:37:08;27.10;42.30
42095;DHT22;27753;55.724;37.612;2023-06-26T11:39:34;27.20;42.00
42095;DHT22;27753;55.724;37.612;2023-06-26T11:42:00;27.00;41.60
42095;DHT22;27753;55.724;37.612;2023-06-26T11:44:30;26.90;41.90
42095;DHT22;27753;55.724;37.612;2023-06-26T11:46:56;26.90;42.20
42095;DHT22;27753;55.724;37.612;2023-06-26T11:49:22;26.90;42.40
42095;DHT22;27753;55.724;37.612;2023-06-26T11:51:48;26.80;42.40
42095;DHT22;27753;55.724;37.612;2023-06-26T11:54:14;26.80;42.50
42095;DHT22;27753;55.724;37.612;2023-06-26T11:56:40;26.70;42.90
42095;DHT22;27753;55.724;37.612;2023-06-26T11:59:06;26.60;42.80
42095;DHT22;27753;55.724;37.612;2023-06-26T12:01:38;26.40;42.80
42095;DHT22;27753;55.724;37.612;2023-06-26T12:04:06;26.40;42.60
42095;DHT22;27753;55.724;37.612;2023-06-26T12:06:36;26.40;42.10
42095;DHT22;27753;55.724;37.612;2023-06-26T12:09:03;26.60;42.10
42095;DHT22;27753;55.724;37.612;2023-06-26T12:11:32;26.90;41.80
42095;DHT22;27753;55.724;37.612;2023-06-26T12:13:58;26.90;40.70
42095;DHT22;27753;55.724;37.612;2023-06-26T12:16:24;27.00;41.10
42095;DHT22;27753;55.724;37.612;2023-06-26T12:18:50;27.30;41.10
42095;DHT22;27753;55.724;37.612;2023-06-26T12:21:34;27.60;40.50
42095;DHT22;27753;55.724;37.612;2023-06-26T12:24:12;27.60;40.50
42095;DHT22;27753;55.724;37.612;2023-06-26T12:26:38;27.60;40.20
42095;DHT22;27753;55.724;37.612;2023-06-26T12:29:04;27.40;39.80
42095;DHT22;27753;55.724;37.612;2023-06-26T12:31:29;27.00;40.00
42095;DHT22;27753;55.724;37.612;2023-06-26T12:33:56;26.70;40.50
42095;DHT22;27753;55.724;37.612;2023-06-26T12:36:22;26.60;40.80
42095;DHT22;27753;55.724;37.612;2023-06-26T12:38:48;26.50;40.90
42095;DHT22;27753;55.724;37.612;2023-06-26T12:41:14;26.50;41.00
42095;DHT22;27753;55.724;37.612;2023-06-26T12:43:42;26.60;41.10
42095;DHT22;27753;55.724;37.612;2023-06-26T12:46:08;26.60;41.70
42095;DHT22;27753;55.724;37.612;2023-06-26T12:48:41;26.70;41.20
42095;DHT22;27753;55.724;37.612;2023-06-26T12:51:09;26.80;41.20
42095;DHT22;27753;55.724;37.612;2023-06-26T12:53:35;27.00;41.20
42095;DHT22;27753;55.724;37.612;2023-06-26T12:56:01;27.00;40.90
42095;DHT22;27753;55.724;37.612;2023-06-26T12:58:27;27.10;40.90
42095;DHT22;27753;55.724;37.612;2023-06-26T13:00:52;27.00;40.70
42095;DHT22;27753;55.724;37.612;2023-06-26T13:03:19;27.00;40.70
42095;DHT22;27753;55.724;37.612;2023-06-26T13:05:46;27.00;40.80
42095;DHT22;27753;55.724;37.612;2023-06-26T13:08:12;27.00;40.80
42095;DHT22;27753;55.724;37.612;2023-06-26T13:10:38;26.90;40.70
42095;DHT22;27753;55.724;37.612;2023-06-26T13:13:05;26.70;40.60
42095;DHT22;27753;55.724;37.612;2023-06-26T13:15:30;26.60;40.70
42095;DHT22;27753;55.724;37.612;2023-06-26T13:17:56;26.40;40.90
42095;DHT22;27753;55.724;37.612;2023-06-26T13:20:22;26.20;41.00
42095;DHT22;27753;55.724;37.612;2023-06-26T13:22:48;26.10;41.00
42095;DHT22;27753;55.724;37.612;2023-06-26T13:25:13;26.10;41.00
42095;DHT22;27753;55.724;37.612;2023-06-26T13:27:39;26.00;41.10
42095;DHT22;27753;55.724;37.612;2023-06-26T13:30:05;25.90;41.40
42095;DHT22;27753;55.724;37.612;2023-06-26T13:32:31;25.90;41.50
42095;DHT22;27753;55.724;37.612;2023-06-26T13:34:56;25.90;41.90
42095;DHT22;27753;55.724;37.612;2023-06-26T13:37:23;25.70;42.00
42095;DHT22;27753;55.724;37.612;2023-06-26T13:39:48;25.70;42.00
42095;DHT22;27753;55.724;37.612;2023-06-26T13:42:16;26.30;42.00
42095;DHT22;27753;55.724;37.612;2023-06-26T13:44:42;27.60;41.50
42095;DHT22;27753;55.724;37.612;2023-06-26T13:47:07;28.80;40.50
42095;DHT22;27753;55.724;37.612;2023-06-26T13:49:33;29.90;40.20
42095;DHT22;27753;55.724;37.612;2023-06-26T13:51:59;30.50;38.10
42095;DHT22;27753;55.724;37.612;2023-06-26T13:54:24;30.90;37.20
42095;DHT22;27753;55.724;37.612;2023-06-26T13:56:50;31.10;36.50
42095;DHT22;27753;55.724;37.612;2023-06-26T13:59:16;31.30;36.10
42095;DHT22;27753;55.724;37.612;2023-06-26T14:01:43;31.20;35.70
42095;DHT22;27753;55.724;37.612;2023-06-26T14:04:09;31.10;35.70
42095;DHT22;27753;55.724;37.612;2023-06-26T14:06:35;31.10;36.20
42095;DHT22;27753;55.724;37.612;2023-06-26T14:09:00;31.40;36.00
42095;DHT22;27753;55.724;37.612;2023-06-26T14:11:26;31.90;36.20
42095;DHT22;27753;55.724;37.612;2023-06-26T14:13:52;32.00;34.80
42095;DHT22;27753;55.724;37.612;2023-06-26T14:16:17;31.40;34.80
42095;DHT22;27753;55.724;37.612;2023-06-26T14:18:44;31.40;35.10
42095;DHT22;27753;55.724;37.612;2023-06-26T14:21:10;31.60;35.40
42095;DHT22;27753;55.724;37.612;2023-06-26T14:23:35;31.80;35.30
42095;DHT22;27753;55.724;37.612;2023-06-26T14:26:01;31.70;35.40
42095;DHT22;27753;55.724;37.612;2023-06-26T14:28:27;31.60;34.60
42095;DHT22;27753;55.724;37.612;2023-06-26T14:30:52;31.50;34.40
42095;DHT22;27753;55.724;37.612;2023-06-26T14:33:18;31.40;34.50
42095;DHT22;27753;55.724;37.612;2023-06-26T14:35:44;31.50;34.80
42095;DHT22;27753;55.724;37.612;2023-06-26T14:38:09;31.30;34.40
42095;DHT22;27753;55.724;37.612;2023-06-26T14:40:35;31.10;33.90
42095;DHT22;27753;55.724;37.612;2023-06-26T14:43:01;30.90;34.20
42095;DHT22;27753;55.724;37.612;2023-06-26T14:45:26;31.00;34.50
42095;DHT22;27753;55.724;37.612;2023-06-26T14:47:52;31.20;34.50
42095;DHT22;27753;55.724;37.612;2023-06-26T14:50:18;31.20;34.60
42095;DHT22;27753;55.724;37.612;2023-06-26T14:52:44;31.20;34.50
42095;DHT22;27753;55.724;37.612;2023-06-26T14:55:09;31.00;34.80
42095;DHT22;27753;55.724;37.612;2023-06-26T14:57:35;30.80;35.10
42095;DHT22;27753;55.724;37.612;2023-06-26T15:00:01;30.70;35.30
42095;DHT22;27753;55.724;37.612;2023-06-26T15:02:28;30.30;35.60
42095;DHT22;27753;55.724;37.612;2023-06-26T15:04:54;29.70;36.00
42095;DHT22;27753;55.724;37.612;2023-06-26T15:07:20;29.20;36.50
42095;DHT22;27753;55.724;37.612;2023-06-26T15:09:45;28.80;36.90
42095;DHT22;27753;55.724;37.612;2023-06-26T15:12:11;28.40;37.30
42095;DHT22;27753;55.724;37.612;2023-06-26T15:14:37;28.00;37.90
42095;DHT22;27753;55.724;37.612;2023-06-26T15:17:03;27.70;38.20
42095;DHT22;27753;55.724;37.612;2023-06-26T15:19:28;27.50;38.70
42095;DHT22;27753;55.724;37.612;2023-06-26T15:21:54;27.10;39.40
42095;DHT22;27753;55.724;37.612;2023-06-26T15:24:20;26.70;39.20
42095;DHT22;27753;55.724;37.612;2023-06-26T15:26:45;26.30;39.00
42095;DHT22;27753;55.724;37.612;2023-06-26T15:29:11;26.10;39.20
42095;DHT22;27753;55.724;37.612;2023-06-26T15:31:40;25.90;39.30
42095;DHT22;27753;55.724;37.612;2023-06-26T15:34:06;25.70;39.30
42095;DHT22;27753;55.724;37.612;2023-06-26T15:36:31;25.60;40.80
42095;DHT22;27753;55.724;37.612;2023-06-26T15:38:57;25.40;41.90
42095;DHT22;27753;55.724;37.612;2023-06-26T15:41:23;25.30;42.20
42095;DHT22;27753;55.724;37.612;2023-06-26T15:43:49;25.10;43.90
42095;DHT22;27753;55.724;37.612;2023-06-26T15:46:14;24.90;43.70
42095;DHT22;27753;55.724;37.612;2023-06-26T15:48:40;24.80;44.10